sensor_id;sensor_type;location;lat;lon;timestamp;P1;durP1;ratioP1;P2;durP2;ratioP2
77522;SDS011;66637;-29.628;-49.938;2023-04-24T00:00:42;35.25;;;4.18;;
77522;SDS011;66637;-29.628;-49.938;2023-04-24T00:03:14;13.48;;;1.92;;
77522;SDS011;66637;-29.628;-49.938;2023-04-24T00:05:45;5.97;;;1.10;;
77522;SDS011;66637;-29.628;-49.938;2023-04-24T00:08:16;11.57;;;1.33;;
77522;SDS011;66637;-29.628;-49.938;2023-04-24T00:10:49;4.30;;;0.90;;
77522;SDS011;66637;-29.628;-49.938;2023-04-24T00:13:19;4.35;;;0.90;;
77522;SDS011;66637;-29.628;-49.938;2023-04-24T00:15:50;7.03;;;0.73;;
77522;SDS011;66637;-29.628;-49.938;2023-04-24T00:18:20;8.55;;;0.75;;
77522;SDS011;66637;-29.628;-49.938;2023-04-24T00:20:52;6.00;;;0.90;;
77522;SDS011;66637;-29.628;-49.938;2023-04-24T00:23:23;5.57;;;1.00;;
77522;SDS011;66637;-29.628;-49.938;2023-04-24T00:25:54;2.08;;;0.70;;
77522;SDS011;66637;-29.628;-49.938;2023-04-24T00:28:25;3.28;;;0.80;;
77522;SDS011;66637;-29.628;-49.938;2023-04-24T00:30:57;3.67;;;0.82;;
77522;SDS011;66637;-29.628;-49.938;2023-04-24T00:33:28;3.53;;;0.60;;
77522;SDS011;66637;-29.628;-49.938;2023-04-24T00:35:59;3.65;;;0.60;;
77522;SDS011;66637;-29.628;-49.938;2023-04-24T00:38:29;5.57;;;0.70;;
77522;SDS011;66637;-29.628;-49.938;2023-04-24T00:41:00;4.57;;;0.60;;
77522;SDS011;66637;-29.628;-49.938;2023-04-24T00:43:31;5.57;;;0.75;;
77522;SDS011;66637;-29.628;-49.938;2023-04-24T00:46:02;6.18;;;0.93;;
77522;SDS011;66637;-29.628;-49.938;2023-04-24T00:48:33;6.90;;;0.80;;
77522;SDS011;66637;-29.628;-49.938;2023-04-24T00:51:04;3.90;;;0.68;;
77522;SDS011;66637;-29.628;-49.938;2023-04-24T00:53:35;5.35;;;0.50;;
77522;SDS011;66637;-29.628;-49.938;2023-04-24T00:56:05;6.75;;;0.70;;
77522;SDS011;66637;-29.628;-49.938;2023-04-24T00:58:36;4.50;;;0.77;;
77522;SDS011;66637;-29.628;-49.938;2023-04-24T01:01:06;4.28;;;0.75;;
77522;SDS011;66637;-29.628;-49.938;2023-04-24T01:03:38;4.43;;;1.00;;
77522;SDS011;66637;-29.628;-49.938;2023-04-24T01:06:09;6.28;;;1.10;;
77522;SDS011;66637;-29.628;-49.938;2023-04-24T01:08:40;4.85;;;0.75;;
77522;SDS011;66637;-29.628;-49.938;2023-04-24T01:11:11;4.20;;;0.60;;
77522;SDS011;66637;-29.628;-49.938;2023-04-24T01:13:41;4.70;;;0.80;;
77522;SDS011;66637;-29.628;-49.938;2023-04-24T01:16:11;4.60;;;0.63;;
77522;SDS011;66637;-29.628;-49.938;2023-04-24T01:18:42;7.15;;;0.90;;
77522;SDS011;66637;-29.628;-49.938;2023-04-24T01:21:13;4.20;;;0.80;;
77522;SDS011;66637;-29.628;-49.938;2023-04-24T01:23:46;3.55;;;1.20;;
77522;SDS011;66637;-29.628;-49.938;2023-04-24T01:26:18;5.25;;;0.95;;
77522;SDS011;66637;-29.628;-49.938;2023-04-24T01:28:52;6.00;;;1.10;;
77522;SDS011;66637;-29.628;-49.938;2023-04-24T01:31:23;5.60;;;0.90;;
77522;SDS011;66637;-29.628;-49.938;2023-04-24T01:33:53;4.13;;;0.80;;
77522;SDS011;66637;-29.628;-49.938;2023-04-24T01:36:26;3.72;;;0.80;;
77522;SDS011;66637;-29.628;-49.938;2023-04-24T01:38:59;3.63;;;0.90;;
77522;SDS011;66637;-29.628;-49.938;2023-04-24T01:41:29;5.15;;;0.93;;
77522;SDS011;66637;-29.628;-49.938;2023-04-24T01:44:00;4.65;;;0.80;;
77522;SDS011;66637;-29.628;-49.938;2023-04-24T01:46:32;5.18;;;0.77;;
77522;SDS011;66637;-29.628;-49.938;2023-04-24T01:49:04;5.88;;;0.90;;
77522;SDS011;66637;-29.628;-49.938;2023-04-24T01:51:36;6.55;;;1.17;;
77522;SDS011;66637;-29.628;-49.938;2023-04-24T01:54:06;3.35;;;0.90;;
77522;SDS011;66637;-29.628;-49.938;2023-04-24T01:56:36;5.22;;;0.85;;
77522;SDS011;66637;-29.628;-49.938;2023-04-24T01:59:12;2.90;;;0.75;;
77522;SDS011;66637;-29.628;-49.938;2023-04-24T02:01:45;7.15;;;0.90;;
77522;SDS011;66637;-29.628;-49.938;2023-04-24T02:04:18;2.42;;;0.68;;
77522;SDS011;66637;-29.628;-49.938;2023-04-24T02:06:48;7.35;;;1.80;;
77522;SDS011;66637;-29.628;-49.938;2023-04-24T02:09:18;4.63;;;0.70;;
77522;SDS011;66637;-29.628;-49.938;2023-04-24T02:11:50;3.83;;;0.65;;
77522;SDS011;66637;-29.628;-49.938;2023-04-24T02:14:21;6.45;;;0.90;;
77522;SDS011;66637;-29.628;-49.938;2023-04-24T02:16:51;7.32;;;0.90;;
77522;SDS011;66637;-29.628;-49.938;2023-04-24T02:19:23;5.78;;;0.90;;
77522;SDS011;66637;-29.628;-49.938;2023-04-24T02:21:53;8.15;;;1.10;;
77522;SDS011;66637;-29.628;-49.938;2023-04-24T02:24:23;6.35;;;0.95;;
77522;SDS011;66637;-29.628;-49.938;2023-04-24T02:26:55;4.25;;;0.80;;
77522;SDS011;66637;-29.628;-49.938;2023-04-24T02:29:26;3.42;;;0.80;;
77522;SDS011;66637;-29.628;-49.938;2023-04-24T02:31:57;4.75;;;0.70;;
77522;SDS011;66637;-29.628;-49.938;2023-04-24T02:34:28;8.70;;;1.50;;
77522;SDS011;66637;-29.628;-49.938;2023-04-24T02:36:59;6.35;;;0.80;;
77522;SDS011;66637;-29.628;-49.938;2023-04-24T02:39:29;3.15;;;0.90;;
77522;SDS011;66637;-29.628;-49.938;2023-04-24T02:41:59;2.83;;;1.00;;
77522;SDS011;66637;-29.628;-49.938;2023-04-24T02:44:30;17.75;;;2.58;;
77522;SDS011;66637;-29.628;-49.938;2023-04-24T02:47:00;20.02;;;2.90;;
77522;SDS011;66637;-29.628;-49.938;2023-04-24T02:49:30;29.70;;;2.92;;
77522;SDS011;66637;-29.628;-49.938;2023-04-24T02:52:02;20.70;;;2.97;;
77522;SDS011;66637;-29.628;-49.938;2023-04-24T02:54:33;24.88;;;3.30;;
77522;SDS011;66637;-29.628;-49.938;2023-04-24T02:57:04;34.08;;;3.75;;
77522;SDS011;66637;-29.628;-49.938;2023-04-24T02:59:38;21.90;;;2.85;;
77522;SDS011;66637;-29.628;-49.938;2023-04-24T03:02:10;13.82;;;2.55;;
77522;SDS011;66637;-29.628;-49.938;2023-04-24T03:04:40;20.48;;;2.20;;
77522;SDS011;66637;-29.628;-49.938;2023-04-24T03:07:13;15.13;;;2.53;;
77522;SDS011;66637;-29.628;-49.938;2023-04-24T03:09:44;25.20;;;2.47;;
77522;SDS011;66637;-29.628;-49.938;2023-04-24T03:12:15;29.65;;;3.50;;
77522;SDS011;66637;-29.628;-49.938;2023-04-24T03:14:47;43.22;;;4.65;;
77522;SDS011;66637;-29.628;-49.938;2023-04-24T03:17:19;44.65;;;4.55;;
77522;SDS011;66637;-29.628;-49.938;2023-04-24T03:19:51;47.63;;;5.78;;
77522;SDS011;66637;-29.628;-49.938;2023-04-24T03:22:20;42.28;;;4.68;;
77522;SDS011;66637;-29.628;-49.938;2023-04-24T03:24:52;42.42;;;4.30;;
77522;SDS011;66637;-29.628;-49.938;2023-04-24T03:27:24;37.88;;;4.10;;
77522;SDS011;66637;-29.628;-49.938;2023-04-24T03:29:59;27.98;;;2.90;;
77522;SDS011;66637;-29.628;-49.938;2023-04-24T03:32:40;28.35;;;3.05;;
77522;SDS011;66637;-29.628;-49.938;2023-04-24T03:35:14;33.15;;;3.58;;
77522;SDS011;66637;-29.628;-49.938;2023-04-24T03:37:44;34.72;;;3.58;;
77522;SDS011;66637;-29.628;-49.938;2023-04-24T03:40:34;19.48;;;3.38;;
77522;SDS011;66637;-29.628;-49.938;2023-04-24T03:43:14;22.20;;;3.10;;
77522;SDS011;66637;-29.628;-49.938;2023-04-24T03:45:45;33.38;;;3.40;;
77522;SDS011;66637;-29.628;-49.938;2023-04-24T03:48:17;23.05;;;3.10;;
77522;SDS011;66637;-29.628;-49.938;2023-04-24T03:50:51;29.45;;;4.30;;
77522;SDS011;66637;-29.628;-49.938;2023-04-24T03:53:22;32.13;;;3.42;;
77522;SDS011;66637;-29.628;-49.938;2023-04-24T03:55:53;30.60;;;2.75;;
77522;SDS011;66637;-29.628;-49.938;2023-04-24T03:58:26;22.95;;;2.55;;
77522;SDS011;66637;-29.628;-49.938;2023-04-24T04:00:57;17.05;;;2.03;;
77522;SDS011;66637;-29.628;-49.938;2023-04-24T04:03:49;18.50;;;2.05;;
77522;SDS011;66637;-29.628;-49.938;2023-04-24T04:06:24;19.50;;;3.03;;
77522;SDS011;66637;-29.628;-49.938;2023-04-24T04:08:55;19.83;;;2.25;;
77522;SDS011;66637;-29.628;-49.938;2023-04-24T04:11:25;29.13;;;3.35;;
77522;SDS011;66637;-29.628;-49.938;2023-04-24T04:13:55;12.23;;;1.77;;
77522;SDS011;66637;-29.628;-49.938;2023-04-24T04:16:26;20.90;;;2.13;;
77522;SDS011;66637;-29.628;-49.938;2023-04-24T04:19:02;24.60;;;2.75;;
77522;SDS011;66637;-29.628;-49.938;2023-04-24T04:21:33;29.75;;;3.20;;
77522;SDS011;66637;-29.628;-49.938;2023-04-24T04:24:14;21.00;;;2.95;;
77522;SDS011;66637;-29.628;-49.938;2023-04-24T04:26:46;25.48;;;2.47;;
77522;SDS011;66637;-29.628;-49.938;2023-04-24T04:29:23;26.10;;;3.10;;
77522;SDS011;66637;-29.628;-49.938;2023-04-24T04:31:53;28.50;;;3.55;;
77522;SDS011;66637;-29.628;-49.938;2023-04-24T04:34:25;33.25;;;3.55;;
77522;SDS011;66637;-29.628;-49.938;2023-04-24T04:36:55;43.53;;;4.53;;
77522;SDS011;66637;-29.628;-49.938;2023-04-24T04:39:45;22.52;;;2.67;;
77522;SDS011;66637;-29.628;-49.938;2023-04-24T04:42:22;21.48;;;3.03;;
77522;SDS011;66637;-29.628;-49.938;2023-04-24T04:44:53;21.92;;;2.97;;
77522;SDS011;66637;-29.628;-49.938;2023-04-24T04:47:32;27.20;;;2.88;;
77522;SDS011;66637;-29.628;-49.938;2023-04-24T04:50:04;15.00;;;2.55;;
77522;SDS011;66637;-29.628;-49.938;2023-04-24T04:52:34;22.73;;;2.40;;
77522;SDS011;66637;-29.628;-49.938;2023-04-24T04:55:15;17.52;;;2.28;;
77522;SDS011;66637;-29.628;-49.938;2023-04-24T04:58:15;17.20;;;2.35;;
77522;SDS011;66637;-29.628;-49.938;2023-04-24T05:03:26;17.40;;;2.53;;
77522;SDS011;66637;-29.628;-49.938;2023-04-24T05:06:05;32.95;;;3.05;;
77522;SDS011;66637;-29.628;-49.938;2023-04-24T05:08:38;22.00;;;3.10;;
77522;SDS011;66637;-29.628;-49.938;2023-04-24T05:11:20;26.42;;;2.80;;
77522;SDS011;66637;-29.628;-49.938;2023-04-24T05:13:52;33.20;;;3.10;;
77522;SDS011;66637;-29.628;-49.938;2023-04-24T05:16:31;15.98;;;2.28;;
77522;SDS011;66637;-29.628;-49.938;2023-04-24T05:19:05;16.77;;;2.45;;
77522;SDS011;66637;-29.628;-49.938;2023-04-24T05:21:39;14.48;;;1.92;;
77522;SDS011;66637;-29.628;-49.938;2023-04-24T05:24:11;20.13;;;2.80;;
77522;SDS011;66637;-29.628;-49.938;2023-04-24T05:27:08;24.40;;;3.00;;
77522;SDS011;66637;-29.628;-49.938;2023-04-24T05:29:40;14.93;;;2.40;;
77522;SDS011;66637;-29.628;-49.938;2023-04-24T05:32:12;13.50;;;2.13;;
77522;SDS011;66637;-29.628;-49.938;2023-04-24T05:34:44;18.08;;;2.00;;
77522;SDS011;66637;-29.628;-49.938;2023-04-24T05:37:16;10.73;;;2.20;;
77522;SDS011;66637;-29.628;-49.938;2023-04-24T05:39:48;12.80;;;1.80;;
77522;SDS011;66637;-29.628;-49.938;2023-04-24T05:42:18;21.05;;;1.98;;
77522;SDS011;66637;-29.628;-49.938;2023-04-24T05:44:50;13.57;;;2.25;;
77522;SDS011;66637;-29.628;-49.938;2023-04-24T05:47:24;13.85;;;2.50;;
77522;SDS011;66637;-29.628;-49.938;2023-04-24T05:49:57;14.48;;;2.33;;
77522;SDS011;66637;-29.628;-49.938;2023-04-24T05:52:27;14.73;;;2.10;;
77522;SDS011;66637;-29.628;-49.938;2023-04-24T05:54:57;10.70;;;1.88;;
77522;SDS011;66637;-29.628;-49.938;2023-04-24T05:57:32;10.45;;;1.77;;
77522;SDS011;66637;-29.628;-49.938;2023-04-24T06:00:04;9.07;;;1.55;;
77522;SDS011;66637;-29.628;-49.938;2023-04-24T06:02:50;8.18;;;1.55;;
77522;SDS011;66637;-29.628;-49.938;2023-04-24T06:05:23;11.00;;;1.42;;
77522;SDS011;66637;-29.628;-49.938;2023-04-24T06:07:54;7.10;;;1.10;;
77522;SDS011;66637;-29.628;-49.938;2023-04-24T06:10:29;5.68;;;1.52;;
77522;SDS011;66637;-29.628;-49.938;2023-04-24T06:13:00;5.65;;;1.13;;
77522;SDS011;66637;-29.628;-49.938;2023-04-24T06:15:33;4.07;;;1.10;;
77522;SDS011;66637;-29.628;-49.938;2023-04-24T06:18:06;6.40;;;1.00;;
77522;SDS011;66637;-29.628;-49.938;2023-04-24T06:20:41;5.78;;;1.20;;
77522;SDS011;66637;-29.628;-49.938;2023-04-24T06:23:12;6.65;;;1.33;;
77522;SDS011;66637;-29.628;-49.938;2023-04-24T06:25:42;6.57;;;1.35;;
77522;SDS011;66637;-29.628;-49.938;2023-04-24T06:28:13;6.90;;;0.95;;
77522;SDS011;66637;-29.628;-49.938;2023-04-24T06:30:43;3.85;;;1.10;;
77522;SDS011;66637;-29.628;-49.938;2023-04-24T06:33:14;3.75;;;1.00;;
77522;SDS011;66637;-29.628;-49.938;2023-04-24T06:35:49;4.78;;;1.40;;
77522;SDS011;66637;-29.628;-49.938;2023-04-24T06:38:21;5.60;;;1.38;;
77522;SDS011;66637;-29.628;-49.938;2023-04-24T06:40:51;4.15;;;1.08;;
77522;SDS011;66637;-29.628;-49.938;2023-04-24T06:43:22;3.72;;;1.05;;
77522;SDS011;66637;-29.628;-49.938;2023-04-24T06:45:52;4.03;;;1.00;;
77522;SDS011;66637;-29.628;-49.938;2023-04-24T06:48:24;8.40;;;1.30;;
77522;SDS011;66637;-29.628;-49.938;2023-04-24T06:50:54;3.40;;;1.10;;
77522;SDS011;66637;-29.628;-49.938;2023-04-24T06:53:24;4.30;;;1.13;;
77522;SDS011;66637;-29.628;-49.938;2023-04-24T06:55:56;3.97;;;1.00;;
77522;SDS011;66637;-29.628;-49.938;2023-04-24T06:58:27;4.32;;;1.10;;
77522;SDS011;66637;-29.628;-49.938;2023-04-24T07:00:57;5.82;;;1.27;;
77522;SDS011;66637;-29.628;-49.938;2023-04-24T07:03:28;4.97;;;1.00;;
77522;SDS011;66637;-29.628;-49.938;2023-04-24T07:05:59;4.07;;;1.17;;
77522;SDS011;66637;-29.628;-49.938;2023-04-24T07:08:31;4.63;;;1.20;;
77522;SDS011;66637;-29.628;-49.938;2023-04-24T07:11:02;6.45;;;1.17;;
77522;SDS011;66637;-29.628;-49.938;2023-04-24T07:13:33;3.60;;;1.00;;
77522;SDS011;66637;-29.628;-49.938;2023-04-24T07:16:05;4.90;;;0.98;;
77522;SDS011;66637;-29.628;-49.938;2023-04-24T07:18:35;3.70;;;1.00;;
77522;SDS011;66637;-29.628;-49.938;2023-04-24T07:21:06;5.20;;;1.02;;
77522;SDS011;66637;-29.628;-49.938;2023-04-24T07:23:36;4.47;;;0.82;;
77522;SDS011;66637;-29.628;-49.938;2023-04-24T07:26:06;3.10;;;1.17;;
77522;SDS011;66637;-29.628;-49.938;2023-04-24T07:28:37;5.00;;;0.80;;
77522;SDS011;66637;-29.628;-49.938;2023-04-24T07:31:08;3.20;;;1.00;;
77522;SDS011;66637;-29.628;-49.938;2023-04-24T07:33:38;4.68;;;1.02;;
77522;SDS011;66637;-29.628;-49.938;2023-04-24T07:36:08;4.05;;;0.80;;
77522;SDS011;66637;-29.628;-49.938;2023-04-24T07:38:45;3.20;;;0.77;;
77522;SDS011;66637;-29.628;-49.938;2023-04-24T07:41:15;5.40;;;0.98;;
77522;SDS011;66637;-29.628;-49.938;2023-04-24T07:43:46;7.82;;;1.00;;
77522;SDS011;66637;-29.628;-49.938;2023-04-24T07:46:17;4.15;;;0.85;;
77522;SDS011;66637;-29.628;-49.938;2023-04-24T07:48:48;2.65;;;0.90;;
77522;SDS011;66637;-29.628;-49.938;2023-04-24T07:51:39;3.85;;;0.85;;
77522;SDS011;66637;-29.628;-49.938;2023-04-24T07:54:10;4.13;;;0.90;;
77522;SDS011;66637;-29.628;-49.938;2023-04-24T07:56:41;4.97;;;0.90;;
77522;SDS011;66637;-29.628;-49.938;2023-04-24T07:59:14;4.45;;;0.88;;
77522;SDS011;66637;-29.628;-49.938;2023-04-24T08:01:45;3.75;;;1.02;;
77522;SDS011;66637;-29.628;-49.938;2023-04-24T08:04:15;3.45;;;0.88;;
77522;SDS011;66637;-29.628;-49.938;2023-04-24T08:06:47;4.78;;;1.10;;
77522;SDS011;66637;-29.628;-49.938;2023-04-24T08:09:17;4.38;;;0.90;;
77522;SDS011;66637;-29.628;-49.938;2023-04-24T08:11:48;6.32;;;0.90;;
77522;SDS011;66637;-29.628;-49.938;2023-04-24T08:14:19;5.03;;;0.93;;
77522;SDS011;66637;-29.628;-49.938;2023-04-24T08:16:49;3.38;;;0.90;;
77522;SDS011;66637;-29.628;-49.938;2023-04-24T08:19:20;4.60;;;1.17;;
77522;SDS011;66637;-29.628;-49.938;2023-04-24T08:21:50;2.95;;;0.80;;
77522;SDS011;66637;-29.628;-49.938;2023-04-24T08:24:22;3.40;;;1.15;;
77522;SDS011;66637;-29.628;-49.938;2023-04-24T08:26:52;4.25;;;0.85;;
77522;SDS011;66637;-29.628;-49.938;2023-04-24T08:29:23;3.85;;;0.95;;
77522;SDS011;66637;-29.628;-49.938;2023-04-24T08:31:54;2.70;;;1.02;;
77522;SDS011;66637;-29.628;-49.938;2023-04-24T08:34:24;2.85;;;1.02;;
77522;SDS011;66637;-29.628;-49.938;2023-04-24T08:36:54;2.70;;;0.85;;
77522;SDS011;66637;-29.628;-49.938;2023-04-24T08:39:26;3.50;;;1.17;;
77522;SDS011;66637;-29.628;-49.938;2023-04-24T08:41:57;3.90;;;1.17;;
77522;SDS011;66637;-29.628;-49.938;2023-04-24T08:44:34;2.75;;;1.10;;
77522;SDS011;66637;-29.628;-49.938;2023-04-24T08:47:06;2.80;;;0.98;;
77522;SDS011;66637;-29.628;-49.938;2023-04-24T08:49:38;2.95;;;0.82;;
77522;SDS011;66637;-29.628;-49.938;2023-04-24T08:52:10;2.80;;;0.90;;
77522;SDS011;66637;-29.628;-49.938;2023-04-24T08:54:42;5.63;;;1.05;;
77522;SDS011;66637;-29.628;-49.938;2023-04-24T08:57:15;4.65;;;0.93;;
77522;SDS011;66637;-29.628;-49.938;2023-04-24T08:59:47;2.50;;;0.82;;
77522;SDS011;66637;-29.628;-49.938;2023-04-24T09:02:18;3.10;;;1.13;;
77522;SDS011;66637;-29.628;-49.938;2023-04-24T09:04:50;3.63;;;0.70;;
77522;SDS011;66637;-29.628;-49.938;2023-04-24T09:07:22;3.40;;;0.80;;
77522;SDS011;66637;-29.628;-49.938;2023-04-24T09:09:55;2.63;;;0.77;;
77522;SDS011;66637;-29.628;-49.938;2023-04-24T09:12:27;1.40;;;0.82;;
77522;SDS011;66637;-29.628;-49.938;2023-04-24T09:14:57;3.88;;;0.93;;
77522;SDS011;66637;-29.628;-49.938;2023-04-24T09:17:28;2.92;;;0.70;;
77522;SDS011;66637;-29.628;-49.938;2023-04-24T09:19:59;5.05;;;0.80;;
77522;SDS011;66637;-29.628;-49.938;2023-04-24T09:22:30;3.35;;;1.00;;
77522;SDS011;66637;-29.628;-49.938;2023-04-24T09:25:07;4.35;;;0.90;;
77522;SDS011;66637;-29.628;-49.938;2023-04-24T09:27:41;2.78;;;0.80;;
77522;SDS011;66637;-29.628;-49.938;2023-04-24T09:30:16;5.05;;;1.00;;
77522;SDS011;66637;-29.628;-49.938;2023-04-24T09:35:53;25.50;;;3.90;;
77522;SDS011;66637;-29.628;-49.938;2023-04-24T09:38:33;22.67;;;3.67;;
77522;SDS011;66637;-29.628;-49.938;2023-04-24T09:41:07;31.63;;;4.15;;
77522;SDS011;66637;-29.628;-49.938;2023-04-24T09:43:42;31.65;;;3.22;;
77522;SDS011;66637;-29.628;-49.938;2023-04-24T09:46:12;28.02;;;3.50;;
77522;SDS011;66637;-29.628;-49.938;2023-04-24T09:48:42;34.40;;;4.82;;
77522;SDS011;66637;-29.628;-49.938;2023-04-24T09:51:14;23.17;;;3.40;;
77522;SDS011;66637;-29.628;-49.938;2023-04-24T09:53:46;32.95;;;4.32;;
77522;SDS011;66637;-29.628;-49.938;2023-04-24T09:56:22;33.17;;;4.28;;
77522;SDS011;66637;-29.628;-49.938;2023-04-24T09:59:03;30.48;;;3.88;;
77522;SDS011;66637;-29.628;-49.938;2023-04-24T10:01:35;40.53;;;5.15;;
77522;SDS011;66637;-29.628;-49.938;2023-04-24T10:04:53;41.25;;;4.22;;
77522;SDS011;66637;-29.628;-49.938;2023-04-24T10:07:06;29.77;;;3.47;;
77522;SDS011;66637;-29.628;-49.938;2023-04-24T10:09:39;19.35;;;2.22;;
77522;SDS011;66637;-29.628;-49.938;2023-04-24T10:12:11;13.95;;;2.05;;
77522;SDS011;66637;-29.628;-49.938;2023-04-24T10:14:45;31.02;;;3.65;;
77522;SDS011;66637;-29.628;-49.938;2023-04-24T10:19:50;28.27;;;3.88;;
77522;SDS011;66637;-29.628;-49.938;2023-04-24T10:22:22;16.17;;;2.17;;
77522;SDS011;66637;-29.628;-49.938;2023-04-24T10:24:53;27.58;;;2.72;;
77522;SDS011;66637;-29.628;-49.938;2023-04-24T10:27:24;22.17;;;2.80;;
77522;SDS011;66637;-29.628;-49.938;2023-04-24T10:32:32;17.48;;;2.10;;
77522;SDS011;66637;-29.628;-49.938;2023-04-24T10:35:03;22.77;;;2.95;;
77522;SDS011;66637;-29.628;-49.938;2023-04-24T10:37:45;23.42;;;3.03;;
77522;SDS011;66637;-29.628;-49.938;2023-04-24T10:40:24;15.32;;;2.33;;
77522;SDS011;66637;-29.628;-49.938;2023-04-24T10:42:58;10.57;;;1.63;;
77522;SDS011;66637;-29.628;-49.938;2023-04-24T10:45:30;11.15;;;1.80;;
77522;SDS011;66637;-29.628;-49.938;2023-04-24T10:48:02;9.35;;;1.30;;
77522;SDS011;66637;-29.628;-49.938;2023-04-24T10:53:19;2.55;;;0.60;;
77522;SDS011;66637;-29.628;-49.938;2023-04-24T10:56:02;3.13;;;0.70;;
77522;SDS011;66637;-29.628;-49.938;2023-04-24T10:58:43;4.32;;;0.60;;
77522;SDS011;66637;-29.628;-49.938;2023-04-24T11:01:25;5.03;;;0.80;;
77522;SDS011;66637;-29.628;-49.938;2023-04-24T11:04:02;1.52;;;0.55;;
77522;SDS011;66637;-29.628;-49.938;2023-04-24T11:06:34;2.55;;;0.57;;
77522;SDS011;66637;-29.628;-49.938;2023-04-24T11:09:10;2.95;;;0.40;;
77522;SDS011;66637;-29.628;-49.938;2023-04-24T11:11:44;4.18;;;0.82;;
77522;SDS011;66637;-29.628;-49.938;2023-04-24T11:14:16;2.60;;;0.50;;
77522;SDS011;66637;-29.628;-49.938;2023-04-24T11:16:53;1.92;;;0.70;;
77522;SDS011;66637;-29.628;-49.938;2023-04-24T11:19:25;2.75;;;0.80;;
77522;SDS011;66637;-29.628;-49.938;2023-04-24T11:22:01;3.25;;;0.60;;
77522;SDS011;66637;-29.628;-49.938;2023-04-24T11:27:39;3.75;;;0.75;;
77522;SDS011;66637;-29.628;-49.938;2023-04-24T11:30:18;4.50;;;0.77;;
77522;SDS011;66637;-29.628;-49.938;2023-04-24T11:32:52;4.50;;;0.82;;
77522;SDS011;66637;-29.628;-49.938;2023-04-24T11:35:22;2.72;;;0.60;;
77522;SDS011;66637;-29.628;-49.938;2023-04-24T11:37:57;9.60;;;1.10;;
77522;SDS011;66637;-29.628;-49.938;2023-04-24T11:40:35;13.38;;;1.92;;
77522;SDS011;66637;-29.628;-49.938;2023-04-24T11:43:08;7.95;;;1.52;;
77522;SDS011;66637;-29.628;-49.938;2023-04-24T11:45:47;12.80;;;1.77;;
77522;SDS011;66637;-29.628;-49.938;2023-04-24T11:48:19;18.48;;;2.08;;
77522;SDS011;66637;-29.628;-49.938;2023-04-24T11:50:51;9.27;;;1.45;;
77522;SDS011;66637;-29.628;-49.938;2023-04-24T11:53:21;17.70;;;2.38;;
77522;SDS011;66637;-29.628;-49.938;2023-04-24T11:55:53;8.82;;;1.35;;
77522;SDS011;66637;-29.628;-49.938;2023-04-24T11:58:24;13.63;;;1.73;;
77522;SDS011;66637;-29.628;-49.938;2023-04-24T12:00:56;7.85;;;0.90;;
77522;SDS011;66637;-29.628;-49.938;2023-04-24T12:03:30;13.45;;;1.63;;
77522;SDS011;66637;-29.628;-49.938;2023-04-24T12:06:06;6.80;;;0.90;;
77522;SDS011;66637;-29.628;-49.938;2023-04-24T12:08:38;10.18;;;1.00;;
77522;SDS011;66637;-29.628;-49.938;2023-04-24T12:11:08;5.43;;;0.60;;
77522;SDS011;66637;-29.628;-49.938;2023-04-24T12:13:39;4.47;;;0.85;;
77522;SDS011;66637;-29.628;-49.938;2023-04-24T12:16:09;5.15;;;0.65;;
77522;SDS011;66637;-29.628;-49.938;2023-04-24T12:18:44;5.95;;;1.42;;
77522;SDS011;66637;-29.628;-49.938;2023-04-24T12:21:20;7.90;;;0.93;;
77522;SDS011;66637;-29.628;-49.938;2023-04-24T12:23:58;8.77;;;1.33;;
77522;SDS011;66637;-29.628;-49.938;2023-04-24T12:26:29;9.07;;;1.17;;
77522;SDS011;66637;-29.628;-49.938;2023-04-24T12:29:01;12.25;;;1.77;;
77522;SDS011;66637;-29.628;-49.938;2023-04-24T12:31:33;32.85;;;4.38;;
77522;SDS011;66637;-29.628;-49.938;2023-04-24T12:34:16;7.13;;;1.20;;
77522;SDS011;66637;-29.628;-49.938;2023-04-24T12:36:48;4.88;;;0.68;;
77522;SDS011;66637;-29.628;-49.938;2023-04-24T12:39:18;4.25;;;0.75;;
77522;SDS011;66637;-29.628;-49.938;2023-04-24T12:41:56;3.72;;;0.70;;
77522;SDS011;66637;-29.628;-49.938;2023-04-24T12:44:32;7.90;;;1.13;;
77522;SDS011;66637;-29.628;-49.938;2023-04-24T12:47:03;6.40;;;1.00;;
77522;SDS011;66637;-29.628;-49.938;2023-04-24T12:49:34;7.80;;;1.35;;
77522;SDS011;66637;-29.628;-49.938;2023-04-24T12:52:07;11.02;;;1.60;;
77522;SDS011;66637;-29.628;-49.938;2023-04-24T12:54:39;23.48;;;2.78;;
77522;SDS011;66637;-29.628;-49.938;2023-04-24T12:57:10;19.60;;;2.60;;
77522;SDS011;66637;-29.628;-49.938;2023-04-24T12:59:40;22.33;;;2.40;;
77522;SDS011;66637;-29.628;-49.938;2023-04-24T13:02:11;20.30;;;2.50;;
77522;SDS011;66637;-29.628;-49.938;2023-04-24T13:04:43;17.48;;;2.47;;
77522;SDS011;66637;-29.628;-49.938;2023-04-24T13:07:15;28.00;;;3.38;;
77522;SDS011;66637;-29.628;-49.938;2023-04-24T13:09:47;4.72;;;0.77;;
77522;SDS011;66637;-29.628;-49.938;2023-04-24T13:12:19;4.57;;;0.90;;
77522;SDS011;66637;-29.628;-49.938;2023-04-24T13:14:49;6.30;;;0.77;;
77522;SDS011;66637;-29.628;-49.938;2023-04-24T13:22:44;13.65;;;1.70;;
77522;SDS011;66637;-29.628;-49.938;2023-04-24T13:25:14;16.60;;;2.78;;
77522;SDS011;66637;-29.628;-49.938;2023-04-24T13:27:46;30.45;;;3.40;;
77522;SDS011;66637;-29.628;-49.938;2023-04-24T13:30:16;18.85;;;3.75;;
77522;SDS011;66637;-29.628;-49.938;2023-04-24T13:32:46;24.42;;;3.58;;
77522;SDS011;66637;-29.628;-49.938;2023-04-24T13:35:17;23.55;;;2.50;;
77522;SDS011;66637;-29.628;-49.938;2023-04-24T13:37:47;21.02;;;2.90;;
77522;SDS011;66637;-29.628;-49.938;2023-04-24T13:40:17;20.30;;;3.00;;
77522;SDS011;66637;-29.628;-49.938;2023-04-24T13:42:48;29.42;;;4.03;;
77522;SDS011;66637;-29.628;-49.938;2023-04-24T13:45:19;24.20;;;3.13;;
77522;SDS011;66637;-29.628;-49.938;2023-04-24T13:47:53;27.20;;;3.10;;
77522;SDS011;66637;-29.628;-49.938;2023-04-24T13:50:24;9.77;;;1.55;;
77522;SDS011;66637;-29.628;-49.938;2023-04-24T13:52:55;26.40;;;3.28;;
77522;SDS011;66637;-29.628;-49.938;2023-04-24T13:55:28;30.02;;;4.40;;
77522;SDS011;66637;-29.628;-49.938;2023-04-24T13:58:00;6.78;;;1.42;;
77522;SDS011;66637;-29.628;-49.938;2023-04-24T14:00:30;25.90;;;3.42;;
77522;SDS011;66637;-29.628;-49.938;2023-04-24T14:03:01;5.05;;;0.90;;
77522;SDS011;66637;-29.628;-49.938;2023-04-24T14:05:32;25.42;;;2.80;;
77522;SDS011;66637;-29.628;-49.938;2023-04-24T14:08:05;34.08;;;4.25;;
77522;SDS011;66637;-29.628;-49.938;2023-04-24T14:10:35;21.08;;;3.42;;
77522;SDS011;66637;-29.628;-49.938;2023-04-24T14:13:05;22.67;;;3.35;;
77522;SDS011;66637;-29.628;-49.938;2023-04-24T14:15:36;25.55;;;3.38;;
77522;SDS011;66637;-29.628;-49.938;2023-04-24T14:18:09;25.25;;;2.88;;
77522;SDS011;66637;-29.628;-49.938;2023-04-24T14:20:40;27.77;;;3.22;;
77522;SDS011;66637;-29.628;-49.938;2023-04-24T14:23:10;15.93;;;1.95;;
77522;SDS011;66637;-29.628;-49.938;2023-04-24T14:25:42;12.02;;;1.77;;
77522;SDS011;66637;-29.628;-49.938;2023-04-24T14:28:13;32.30;;;4.35;;
77522;SDS011;66637;-29.628;-49.938;2023-04-24T14:30:43;24.50;;;3.65;;
77522;SDS011;66637;-29.628;-49.938;2023-04-24T14:33:15;34.92;;;4.43;;
77522;SDS011;66637;-29.628;-49.938;2023-04-24T14:35:48;9.65;;;1.35;;
77522;SDS011;66637;-29.628;-49.938;2023-04-24T14:38:18;4.97;;;0.70;;
77522;SDS011;66637;-29.628;-49.938;2023-04-24T14:40:50;6.28;;;0.88;;
77522;SDS011;66637;-29.628;-49.938;2023-04-24T14:43:33;4.38;;;0.70;;
77522;SDS011;66637;-29.628;-49.938;2023-04-24T14:46:04;2.88;;;0.73;;
77522;SDS011;66637;-29.628;-49.938;2023-04-24T14:48:34;6.22;;;0.75;;
77522;SDS011;66637;-29.628;-49.938;2023-04-24T14:51:06;3.70;;;0.82;;
77522;SDS011;66637;-29.628;-49.938;2023-04-24T14:53:37;4.15;;;0.32;;
77522;SDS011;66637;-29.628;-49.938;2023-04-24T14:56:08;3.53;;;0.50;;